sensor_id;sensor_type;location;lat;lon;timestamp;temperature;humidity
15481;DHT22;7842;50.904;6.670;2022-11-20T00:00:09;4.50;99.90
15481;DHT22;7842;50.904;6.670;2022-11-20T00:02:34;4.50;99.90
15481;DHT22;7842;50.904;6.670;2022-11-20T00:05:00;4.60;99.90
15481;DHT22;7842;50.904;6.670;2022-11-20T00:07:26;4.60;99.90
15481;DHT22;7842;50.904;6.670;2022-11-20T00:09:51;4.60;99.90
15481;DHT22;7842;50.904;6.670;2022-11-20T00:12:17;4.70;99.90
15481;DHT22;7842;50.904;6.670;2022-11-20T00:14:42;4.60;99.90
15481;DHT22;7842;50.904;6.670;2022-11-20T00:17:08;4.60;99.90
15481;DHT22;7842;50.904;6.670;2022-11-20T00:19:34;4.50;99.90
15481;DHT22;7842;50.904;6.670;2022-11-20T00:21:59;4.50;99.90
15481;DHT22;7842;50.904;6.670;2022-11-20T00:24:25;4.50;99.90
15481;DHT22;7842;50.904;6.670;2022-11-20T00:26:51;4.50;99.90
15481;DHT22;7842;50.904;6.670;2022-11-20T00:29:16;4.40;99.90
15481;DHT22;7842;50.904;6.670;2022-11-20T00:31:42;4.40;99.90
15481;DHT22;7842;50.904;6.670;2022-11-20T00:34:08;4.50;99.90
15481;DHT22;7842;50.904;6.670;2022-11-20T00:36:34;4.50;99.90
15481;DHT22;7842;50.904;6.670;2022-11-20T00:39:00;4.50;99.90
15481;DHT22;7842;50.904;6.670;2022-11-20T00:41:27;4.60;99.90
15481;DHT22;7842;50.904;6.670;2022-11-20T00:43:54;4.60;99.90
15481;DHT22;7842;50.904;6.670;2022-11-20T00:46:22;4.70;99.90
15481;DHT22;7842;50.904;6.670;2022-11-20T00:48:48;4.70;99.90
15481;DHT22;7842;50.904;6.670;2022-11-20T00:51:16;4.60;99.90
15481;DHT22;7842;50.904;6.670;2022-11-20T00:53:43;4.50;99.90
15481;DHT22;7842;50.904;6.670;2022-11-20T00:56:13;4.50;99.90
15481;DHT22;7842;50.904;6.670;2022-11-20T00:58:41;4.50;99.90
15481;DHT22;7842;50.904;6.670;2022-11-20T01:01:24;4.40;99.90
15481;DHT22;7842;50.904;6.670;2022-11-20T01:03:52;4.50;99.90
15481;DHT22;7842;50.904;6.670;2022-11-20T01:06:23;4.50;99.90
15481;DHT22;7842;50.904;6.670;2022-11-20T01:08:50;4.40;99.90
15481;DHT22;7842;50.904;6.670;2022-11-20T01:11:18;4.40;99.90
15481;DHT22;7842;50.904;6.670;2022-11-20T01:13:46;4.50;99.90
15481;DHT22;7842;50.904;6.670;2022-11-20T01:18:41;4.40;99.90
15481;DHT22;7842;50.904;6.670;2022-11-20T01:21:11;4.40;99.90
15481;DHT22;7842;50.904;6.670;2022-11-20T01:23:39;4.40;99.90
15481;DHT22;7842;50.904;6.670;2022-11-20T01:26:11;4.30;99.90
15481;DHT22;7842;50.904;6.670;2022-11-20T01:28:37;4.20;99.90
15481;DHT22;7842;50.904;6.670;2022-11-20T01:31:12;4.20;99.90
15481;DHT22;7842;50.904;6.670;2022-11-20T01:33:39;4.10;99.90
15481;DHT22;7842;50.904;6.670;2022-11-20T01:36:06;4.00;99.90
15481;DHT22;7842;50.904;6.670;2022-11-20T01:38:32;4.00;99.90
15481;DHT22;7842;50.904;6.670;2022-11-20T01:40:57;4.00;99.90
15481;DHT22;7842;50.904;6.670;2022-11-20T01:43:23;4.00;99.90
15481;DHT22;7842;50.904;6.670;2022-11-20T01:46:18;4.10;99.90
15481;DHT22;7842;50.904;6.670;2022-11-20T01:49:03;4.10;99.90
15481;DHT22;7842;50.904;6.670;2022-11-20T01:51:34;4.30;99.90
15481;DHT22;7842;50.904;6.670;2022-11-20T01:54:03;4.30;99.90
15481;DHT22;7842;50.904;6.670;2022-11-20T01:56:32;4.30;99.90
15481;DHT22;7842;50.904;6.670;2022-11-20T01:59:01;4.20;99.90
15481;DHT22;7842;50.904;6.670;2022-11-20T02:01:27;4.10;99.90
15481;DHT22;7842;50.904;6.670;2022-11-20T02:03:53;4.10;99.90
15481;DHT22;7842;50.904;6.670;2022-11-20T02:06:23;4.10;99.90
15481;DHT22;7842;50.904;6.670;2022-11-20T02:08:51;4.20;99.90
15481;DHT22;7842;50.904;6.670;2022-11-20T02:11:17;4.10;99.90
15481;DHT22;7842;50.904;6.670;2022-11-20T02:13:43;4.10;99.90
15481;DHT22;7842;50.904;6.670;2022-11-20T02:16:26;4.20;99.90
15481;DHT22;7842;50.904;6.670;2022-11-20T02:18:54;4.20;99.90
15481;DHT22;7842;50.904;6.670;2022-11-20T02:24:06;4.00;99.90
15481;DHT22;7842;50.904;6.670;2022-11-20T02:26:49;3.90;99.90
15481;DHT22;7842;50.904;6.670;2022-11-20T02:29:24;3.90;99.90
15481;DHT22;7842;50.904;6.670;2022-11-20T02:31:51;3.90;99.90
15481;DHT22;7842;50.904;6.670;2022-11-20T02:34:18;3.90;99.90
15481;DHT22;7842;50.904;6.670;2022-11-20T02:36:44;3.90;99.90
15481;DHT22;7842;50.904;6.670;2022-11-20T02:39:11;3.90;99.90
15481;DHT22;7842;50.904;6.670;2022-11-20T02:41:38;4.00;99.90
15481;DHT22;7842;50.904;6.670;2022-11-20T02:44:05;3.90;99.90
15481;DHT22;7842;50.904;6.670;2022-11-20T02:46:31;4.00;99.90
15481;DHT22;7842;50.904;6.670;2022-11-20T02:48:58;4.00;99.90
15481;DHT22;7842;50.904;6.670;2022-11-20T02:51:24;3.90;99.90
15481;DHT22;7842;50.904;6.670;2022-11-20T02:53:49;3.90;99.90
15481;DHT22;7842;50.904;6.670;2022-11-20T02:56:15;3.90;99.90
15481;DHT22;7842;50.904;6.670;2022-11-20T02:58:41;3.90;99.90
15481;DHT22;7842;50.904;6.670;2022-11-20T03:01:06;3.90;99.90
15481;DHT22;7842;50.904;6.670;2022-11-20T03:03:32;3.90;99.90
15481;DHT22;7842;50.904;6.670;2022-11-20T03:05:59;4.00;99.90
15481;DHT22;7842;50.904;6.670;2022-11-20T03:08:25;4.00;99.90
15481;DHT22;7842;50.904;6.670;2022-11-20T03:10:52;4.00;99.90
15481;DHT22;7842;50.904;6.670;2022-11-20T03:13:17;4.10;99.90
15481;DHT22;7842;50.904;6.670;2022-11-20T03:15:43;4.00;99.90
15481;DHT22;7842;50.904;6.670;2022-11-20T03:18:09;4.10;99.90
15481;DHT22;7842;50.904;6.670;2022-11-20T03:20:34;4.20;99.90
15481;DHT22;7842;50.904;6.670;2022-11-20T03:23:01;4.20;99.90
15481;DHT22;7842;50.904;6.670;2022-11-20T03:25:26;4.30;99.90
15481;DHT22;7842;50.904;6.670;2022-11-20T03:27:52;4.40;99.90
15481;DHT22;7842;50.904;6.670;2022-11-20T03:30:18;4.40;99.90
15481;DHT22;7842;50.904;6.670;2022-11-20T03:32:44;4.40;99.90
15481;DHT22;7842;50.904;6.670;2022-11-20T03:35:10;4.40;99.90
15481;DHT22;7842;50.904;6.670;2022-11-20T03:37:35;4.40;99.90
15481;DHT22;7842;50.904;6.670;2022-11-20T03:40:01;4.40;99.90
15481;DHT22;7842;50.904;6.670;2022-11-20T03:42:26;4.50;99.90
15481;DHT22;7842;50.904;6.670;2022-11-20T03:45:10;4.40;99.90
15481;DHT22;7842;50.904;6.670;2022-11-20T03:47:36;4.20;99.90
15481;DHT22;7842;50.904;6.670;2022-11-20T03:50:01;4.20;99.90
15481;DHT22;7842;50.904;6.670;2022-11-20T03:52:27;4.30;99.90
15481;DHT22;7842;50.904;6.670;2022-11-20T03:54:53;4.20;99.90
15481;DHT22;7842;50.904;6.670;2022-11-20T03:57:18;4.20;99.90
15481;DHT22;7842;50.904;6.670;2022-11-20T03:59:44;4.10;99.90
15481;DHT22;7842;50.904;6.670;2022-11-20T04:02:09;4.00;99.90
15481;DHT22;7842;50.904;6.670;2022-11-20T04:04:35;4.10;99.90
15481;DHT22;7842;50.904;6.670;2022-11-20T04:07:00;4.20;99.90
15481;DHT22;7842;50.904;6.670;2022-11-20T04:09:26;4.20;99.90
15481;DHT22;7842;50.904;6.670;2022-11-20T04:11:51;4.30;99.90
15481;DHT22;7842;50.904;6.670;2022-11-20T04:14:17;4.30;99.90
15481;DHT22;7842;50.904;6.670;2022-11-20T04:16:43;4.40;99.90
15481;DHT22;7842;50.904;6.670;2022-11-20T04:19:14;4.40;99.90
15481;DHT22;7842;50.904;6.670;2022-11-20T04:21:41;4.40;99.90
15481;DHT22;7842;50.904;6.670;2022-11-20T04:24:07;4.40;99.90
15481;DHT22;7842;50.904;6.670;2022-11-20T04:26:33;4.40;99.90
15481;DHT22;7842;50.904;6.670;2022-11-20T04:28:59;4.40;99.90
15481;DHT22;7842;50.904;6.670;2022-11-20T04:31:29;4.40;99.90
15481;DHT22;7842;50.904;6.670;2022-11-20T04:33:55;4.40;99.90
15481;DHT22;7842;50.904;6.670;2022-11-20T04:36:25;4.40;99.90
15481;DHT22;7842;50.904;6.670;2022-11-20T04:39:02;4.40;99.90
15481;DHT22;7842;50.904;6.670;2022-11-20T04:41:30;4.40;99.90
15481;DHT22;7842;50.904;6.670;2022-11-20T04:43:58;4.50;99.90
15481;DHT22;7842;50.904;6.670;2022-11-20T04:46:27;4.50;99.90
15481;DHT22;7842;50.904;6.670;2022-11-20T04:48:53;4.60;99.90
15481;DHT22;7842;50.904;6.670;2022-11-20T04:51:19;4.60;99.90
15481;DHT22;7842;50.904;6.670;2022-11-20T04:53:44;4.60;99.90
15481;DHT22;7842;50.904;6.670;2022-11-20T04:56:12;4.50;99.90
15481;DHT22;7842;50.904;6.670;2022-11-20T04:58:38;4.50;99.90
15481;DHT22;7842;50.904;6.670;2022-11-20T05:01:06;4.60;99.90
15481;DHT22;7842;50.904;6.670;2022-11-20T05:03:32;4.60;99.90
15481;DHT22;7842;50.904;6.670;2022-11-20T05:06:02;4.60;99.90
15481;DHT22;7842;50.904;6.670;2022-11-20T05:08:28;4.50;99.90
15481;DHT22;7842;50.904;6.670;2022-11-20T05:10:59;4.50;99.90
15481;DHT22;7842;50.904;6.670;2022-11-20T05:13:26;4.50;99.90
15481;DHT22;7842;50.904;6.670;2022-11-20T05:15:52;4.50;99.90
15481;DHT22;7842;50.904;6.670;2022-11-20T05:18:17;4.50;99.90
15481;DHT22;7842;50.904;6.670;2022-11-20T05:20:43;4.60;99.90
15481;DHT22;7842;50.904;6.670;2022-11-20T05:23:08;4.50;99.90
15481;DHT22;7842;50.904;6.670;2022-11-20T05:25:34;4.40;99.90
15481;DHT22;7842;50.904;6.670;2022-11-20T05:27:59;4.90;99.90
15481;DHT22;7842;50.904;6.670;2022-11-20T05:30:25;4.40;99.90
15481;DHT22;7842;50.904;6.670;2022-11-20T05:32:50;4.40;99.90
15481;DHT22;7842;50.904;6.670;2022-11-20T05:35:16;4.50;99.90
15481;DHT22;7842;50.904;6.670;2022-11-20T05:37:42;4.50;99.90
15481;DHT22;7842;50.904;6.670;2022-11-20T05:40:08;4.50;99.90
15481;DHT22;7842;50.904;6.670;2022-11-20T05:42:33;4.60;99.90
15481;DHT22;7842;50.904;6.670;2022-11-20T05:45:01;4.70;99.90
15481;DHT22;7842;50.904;6.670;2022-11-20T05:47:28;4.60;99.90
15481;DHT22;7842;50.904;6.670;2022-11-20T05:49:54;4.50;99.90
15481;DHT22;7842;50.904;6.670;2022-11-20T05:52:20;4.50;99.90
15481;DHT22;7842;50.904;6.670;2022-11-20T05:54:45;4.60;99.90
15481;DHT22;7842;50.904;6.670;2022-11-20T05:57:11;4.50;99.90
15481;DHT22;7842;50.904;6.670;2022-11-20T05:59:36;4.50;99.90
15481;DHT22;7842;50.904;6.670;2022-11-20T06:02:02;4.40;99.90
15481;DHT22;7842;50.904;6.670;2022-11-20T06:04:28;4.20;99.90
15481;DHT22;7842;50.904;6.670;2022-11-20T06:06:54;4.20;99.90
15481;DHT22;7842;50.904;6.670;2022-11-20T06:09:19;4.10;99.90
15481;DHT22;7842;50.904;6.670;2022-11-20T06:11:45;4.20;99.90
15481;DHT22;7842;50.904;6.670;2022-11-20T06:14:10;4.10;99.90
15481;DHT22;7842;50.904;6.670;2022-11-20T06:16:36;4.20;99.90
15481;DHT22;7842;50.904;6.670;2022-11-20T06:19:02;4.20;99.90
15481;DHT22;7842;50.904;6.670;2022-11-20T06:21:27;4.20;99.90
15481;DHT22;7842;50.904;6.670;2022-11-20T06:23:53;4.10;99.90
15481;DHT22;7842;50.904;6.670;2022-11-20T06:26:23;4.10;99.90
15481;DHT22;7842;50.904;6.670;2022-11-20T06:28:50;4.10;99.90
15481;DHT22;7842;50.904;6.670;2022-11-20T06:31:17;4.20;99.90
15481;DHT22;7842;50.904;6.670;2022-11-20T06:33:43;4.30;99.90
15481;DHT22;7842;50.904;6.670;2022-11-20T06:36:10;4.30;99.90
15481;DHT22;7842;50.904;6.670;2022-11-20T06:38:37;4.20;99.90
15481;DHT22;7842;50.904;6.670;2022-11-20T06:41:04;4.20;99.90
15481;DHT22;7842;50.904;6.670;2022-11-20T06:43:30;4.30;99.90
15481;DHT22;7842;50.904;6.670;2022-11-20T06:45:57;4.20;99.90
15481;DHT22;7842;50.904;6.670;2022-11-20T06:48:23;4.30;99.90
15481;DHT22;7842;50.904;6.670;2022-11-20T06:50:50;4.40;99.90
15481;DHT22;7842;50.904;6.670;2022-11-20T06:53:16;4.40;99.90
15481;DHT22;7842;50.904;6.670;2022-11-20T06:55:42;4.60;99.90
15481;DHT22;7842;50.904;6.670;2022-11-20T06:58:09;4.50;99.90
15481;DHT22;7842;50.904;6.670;2022-11-20T07:00:34;4.60;99.90
15481;DHT22;7842;50.904;6.670;2022-11-20T07:03:06;4.60;99.90
15481;DHT22;7842;50.904;6.670;2022-11-20T07:05:33;4.60;99.90
15481;DHT22;7842;50.904;6.670;2022-11-20T07:07:59;4.60;99.90
15481;DHT22;7842;50.904;6.670;2022-11-20T07:10:25;4.70;99.90
15481;DHT22;7842;50.904;6.670;2022-11-20T07:12:52;4.70;99.90
15481;DHT22;7842;50.904;6.670;2022-11-20T07:15:19;4.70;99.90
15481;DHT22;7842;50.904;6.670;2022-11-20T07:17:45;4.90;99.90
15481;DHT22;7842;50.904;6.670;2022-11-20T07:20:11;4.70;99.90
15481;DHT22;7842;50.904;6.670;2022-11-20T07:22:37;4.70;99.90
15481;DHT22;7842;50.904;6.670;2022-11-20T07:25:03;4.60;99.90
15481;DHT22;7842;50.904;6.670;2022-11-20T07:27:30;4.60;99.90
15481;DHT22;7842;50.904;6.670;2022-11-20T07:29:55;4.70;99.90
15481;DHT22;7842;50.904;6.670;2022-11-20T07:32:22;4.70;99.90
15481;DHT22;7842;50.904;6.670;2022-11-20T07:34:48;4.70;99.90
15481;DHT22;7842;50.904;6.670;2022-11-20T07:37:14;4.70;99.90
15481;DHT22;7842;50.904;6.670;2022-11-20T07:39:40;5.80;99.90
15481;DHT22;7842;50.904;6.670;2022-11-20T07:42:09;4.80;99.90
15481;DHT22;7842;50.904;6.670;2022-11-20T07:44:35;4.90;99.90
15481;DHT22;7842;50.904;6.670;2022-11-20T07:47:02;4.80;99.90
15481;DHT22;7842;50.904;6.670;2022-11-20T07:49:28;4.80;99.90
15481;DHT22;7842;50.904;6.670;2022-11-20T07:51:53;4.80;99.90
15481;DHT22;7842;50.904;6.670;2022-11-20T07:54:20;4.60;99.90
15481;DHT22;7842;50.904;6.670;2022-11-20T07:56:46;4.60;99.90
15481;DHT22;7842;50.904;6.670;2022-11-20T07:59:12;4.20;99.90
15481;DHT22;7842;50.904;6.670;2022-11-20T08:01:39;4.60;99.90
15481;DHT22;7842;50.904;6.670;2022-11-20T08:04:04;4.70;99.90
15481;DHT22;7842;50.904;6.670;2022-11-20T08:06:31;4.70;99.90
15481;DHT22;7842;50.904;6.670;2022-11-20T08:08:56;4.70;99.90
15481;DHT22;7842;50.904;6.670;2022-11-20T08:11:22;4.70;99.90
15481;DHT22;7842;50.904;6.670;2022-11-20T08:14:06;4.80;99.90
15481;DHT22;7842;50.904;6.670;2022-11-20T08:16:48;4.80;99.90
15481;DHT22;7842;50.904;6.670;2022-11-20T08:19:15;4.70;99.90
15481;DHT22;7842;50.904;6.670;2022-11-20T08:21:41;4.80;99.90
15481;DHT22;7842;50.904;6.670;2022-11-20T08:24:08;4.80;99.90
15481;DHT22;7842;50.904;6.670;2022-11-20T08:26:35;4.80;99.90
15481;DHT22;7842;50.904;6.670;2022-11-20T08:29:03;4.90;99.90
15481;DHT22;7842;50.904;6.670;2022-11-20T08:31:29;4.60;99.90
15481;DHT22;7842;50.904;6.670;2022-11-20T08:33:55;4.90;99.90
15481;DHT22;7842;50.904;6.670;2022-11-20T08:36:22;4.80;99.90
15481;DHT22;7842;50.904;6.670;2022-11-20T08:38:49;4.70;99.90
15481;DHT22;7842;50.904;6.670;2022-11-20T08:41:15;4.70;99.90
15481;DHT22;7842;50.904;6.670;2022-11-20T08:43:51;4.70;99.90
15481;DHT22;7842;50.904;6.670;2022-11-20T08:46:17;4.80;99.90
15481;DHT22;7842;50.904;6.670;2022-11-20T08:48:43;4.90;99.90
15481;DHT22;7842;50.904;6.670;2022-11-20T08:51:09;5.00;99.90
15481;DHT22;7842;50.904;6.670;2022-11-20T08:53:35;5.00;99.90
15481;DHT22;7842;50.904;6.670;2022-11-20T08:56:01;5.10;99.90
15481;DHT22;7842;50.904;6.670;2022-11-20T08:58:27;5.10;99.90
15481;DHT22;7842;50.904;6.670;2022-11-20T09:00:53;5.20;99.90
15481;DHT22;7842;50.904;6.670;2022-11-20T09:03:19;5.20;99.90
15481;DHT22;7842;50.904;6.670;2022-11-20T09:05:45;5.30;99.90
15481;DHT22;7842;50.904;6.670;2022-11-20T09:08:10;5.40;99.90
15481;DHT22;7842;50.904;6.670;2022-11-20T09:10:36;5.40;99.90
15481;DHT22;7842;50.904;6.670;2022-11-20T09:13:05;5.40;99.90
15481;DHT22;7842;50.904;6.670;2022-11-20T09:15:31;5.50;99.90
15481;DHT22;7842;50.904;6.670;2022-11-20T09:18:00;5.60;99.90
15481;DHT22;7842;50.904;6.670;2022-11-20T09:20:27;5.70;99.90
15481;DHT22;7842;50.904;6.670;2022-11-20T09:22:54;5.90;99.90
15481;DHT22;7842;50.904;6.670;2022-11-20T09:25:20;5.70;99.90
15481;DHT22;7842;50.904;6.670;2022-11-20T09:27:46;5.60;99.90
15481;DHT22;7842;50.904;6.670;2022-11-20T09:30:13;5.50;99.90
15481;DHT22;7842;50.904;6.670;2022-11-20T09:32:39;5.60;99.90
15481;DHT22;7842;50.904;6.670;2022-11-20T09:35:05;5.60;99.90
15481;DHT22;7842;50.904;6.670;2022-11-20T09:37:31;5.70;99.90
15481;DHT22;7842;50.904;6.670;2022-11-20T09:39:57;6.00;99.90
15481;DHT22;7842;50.904;6.670;2022-11-20T09:42:50;5.90;99.90
15481;DHT22;7842;50.904;6.670;2022-11-20T09:48:32;5.80;99.90
15481;DHT22;7842;50.904;6.670;2022-11-20T09:53:46;5.70;99.90
15481;DHT22;7842;50.904;6.670;2022-11-20T09:56:17;5.90;99.90
15481;DHT22;7842;50.904;6.670;2022-11-20T09:58:46;5.70;99.90
15481;DHT22;7842;50.904;6.670;2022-11-20T10:01:21;5.80;99.90
15481;DHT22;7842;50.904;6.670;2022-11-20T10:03:57;5.90;99.90
15481;DHT22;7842;50.904;6.670;2022-11-20T10:06:32;5.90;99.90
15481;DHT22;7842;50.904;6.670;2022-11-20T10:09:29;5.90;99.90
15481;DHT22;7842;50.904;6.670;2022-11-20T10:15:09;5.60;99.90
15481;DHT22;7842;50.904;6.670;2022-11-20T10:18:01;5.60;99.90
15481;DHT22;7842;50.904;6.670;2022-11-20T10:26:17;5.60;99.90
15481;DHT22;7842;50.904;6.670;2022-11-20T10:29:18;5.60;99.90
15481;DHT22;7842;50.904;6.670;2022-11-20T10:31:47;5.80;99.90
15481;DHT22;7842;50.904;6.670;2022-11-20T10:37:15;5.60;99.90
15481;DHT22;7842;50.904;6.670;2022-11-20T10:42:40;5.60;99.90
15481;DHT22;7842;50.904;6.670;2022-11-20T10:45:36;5.60;99.90
15481;DHT22;7842;50.904;6.670;2022-11-20T10:48:16;5.70;99.90
15481;DHT22;7842;50.904;6.670;2022-11-20T10:53:53;5.60;99.90
15481;DHT22;7842;50.904;6.670;2022-11-20T10:59:32;5.60;99.90
15481;DHT22;7842;50.904;6.670;2022-11-20T11:02:01;5.60;99.90
15481;DHT22;7842;50.904;6.670;2022-11-20T11:04:43;5.80;99.90
15481;DHT22;7842;50.904;6.670;2022-11-20T11:07:27;5.80;99.90
15481;DHT22;7842;50.904;6.670;2022-11-20T11:09:55;5.70;99.90
15481;DHT22;7842;50.904;6.670;2022-11-20T11:12:23;5.80;99.90
15481;DHT22;7842;50.904;6.670;2022-11-20T11:14:51;5.90;99.90
15481;DHT22;7842;50.904;6.670;2022-11-20T11:17:32;6.10;99.90
15481;DHT22;7842;50.904;6.670;2022-11-20T11:22:50;5.70;99.90
15481;DHT22;7842;50.904;6.670;2022-11-20T11:25:21;5.60;99.90
15481;DHT22;7842;50.904;6.670;2022-11-20T11:27:50;5.50;99.90
15481;DHT22;7842;50.904;6.670;2022-11-20T11:30:17;5.50;99.90
15481;DHT22;7842;50.904;6.670;2022-11-20T11:32:43;5.60;99.90
15481;DHT22;7842;50.904;6.670;2022-11-20T11:35:27;5.70;99.90
15481;DHT22;7842;50.904;6.670;2022-11-20T11:38:10;5.70;99.90
15481;DHT22;7842;50.904;6.670;2022-11-20T11:40:40;5.70;99.90
15481;DHT22;7842;50.904;6.670;2022-11-20T11:43:16;5.70;99.90
15481;DHT22;7842;50.904;6.670;2022-11-20T11:46:01;5.60;99.90
15481;DHT22;7842;50.904;6.670;2022-11-20T11:48:27;5.60;99.90
15481;DHT22;7842;50.904;6.670;2022-11-20T11:50:53;5.60;99.90
15481;DHT22;7842;50.904;6.670;2022-11-20T11:53:21;5.60;99.90
15481;DHT22;7842;50.904;6.670;2022-11-20T11:56:08;5.60;99.90
15481;DHT22;7842;50.904;6.670;2022-11-20T11:58:53;5.60;99.90
15481;DHT22;7842;50.904;6.670;2022-11-20T12:01:47;5.70;99.90
15481;DHT22;7842;50.904;6.670;2022-11-20T12:07:19;5.80;99.90
15481;DHT22;7842;50.904;6.670;2022-11-20T12:09:52;5.70;99.90
15481;DHT22;7842;50.904;6.670;2022-11-20T12:12:23;5.80;99.90
15481;DHT22;7842;50.904;6.670;2022-11-20T12:14:52;5.80;99.90
15481;DHT22;7842;50.904;6.670;2022-11-20T12:17:20;5.90;99.90
15481;DHT22;7842;50.904;6.670;2022-11-20T12:19:45;5.70;99.90
15481;DHT22;7842;50.904;6.670;2022-11-20T12:25:11;5.80;99.90
15481;DHT22;7842;50.904;6.670;2022-11-20T12:30:10;5.90;99.90
15481;DHT22;7842;50.904;6.670;2022-11-20T12:33:08;6.00;99.90
15481;DHT22;7842;50.904;6.670;2022-11-20T12:47:51;6.30;99.90
15481;DHT22;7842;50.904;6.670;2022-11-20T12:58:25;6.30;99.90
15481;DHT22;7842;50.904;6.670;2022-11-20T13:07:07;6.40;99.90
15481;DHT22;7842;50.904;6.670;2022-11-20T13:09:39;6.30;99.90
15481;DHT22;7842;50.904;6.670;2022-11-20T13:12:15;6.50;99.90
15481;DHT22;7842;50.904;6.670;2022-11-20T13:20:16;6.30;99.90
15481;DHT22;7842;50.904;6.670;2022-11-20T13:22:47;6.30;99.90
15481;DHT22;7842;50.904;6.670;2022-11-20T13:25:27;6.30;99.90
15481;DHT22;7842;50.904;6.670;2022-11-20T13:27:59;6.20;99.90
15481;DHT22;7842;50.904;6.670;2022-11-20T13:30:27;6.30;99.90
15481;DHT22;7842;50.904;6.670;2022-11-20T13:35:32;6.30;99.90
15481;DHT22;7842;50.904;6.670;2022-11-20T13:38:11;6.20;99.90
15481;DHT22;7842;50.904;6.670;2022-11-20T13:40:39;6.20;99.90
15481;DHT22;7842;50.904;6.670;2022-11-20T13:45:54;6.20;99.90
15481;DHT22;7842;50.904;6.670;2022-11-20T13:48:25;6.20;99.90
15481;DHT22;7842;50.904;6.670;2022-11-20T13:51:15;6.50;99.90
15481;DHT22;7842;50.904;6.670;2022-11-20T14:02:15;6.30;99.90
15481;DHT22;7842;50.904;6.670;2022-11-20T14:04:48;6.40;99.90
15481;DHT22;7842;50.904;6.670;2022-11-20T14:07:18;6.30;99.90
15481;DHT22;7842;50.904;6.670;2022-11-20T14:12:18;6.40;99.90
15481;DHT22;7842;50.904;6.670;2022-11-20T14:14:52;6.30;99.90
15481;DHT22;7842;50.904;6.670;2022-11-20T14:17:24;6.30;99.90
15481;DHT22;7842;50.904;6.670;2022-11-20T14:19:51;6.30;99.90
15481;DHT22;7842;50.904;6.670;2022-11-20T14:22:25;6.30;99.90
15481;DHT22;7842;50.904;6.670;2022-11-20T14:27:51;6.30;99.90
15481;DHT22;7842;50.904;6.670;2022-11-20T14:30:20;6.40;99.90
15481;DHT22;7842;50.904;6.670;2022-11-20T14:32:47;6.40;99.90
15481;DHT22;7842;50.904;6.670;2022-11-20T14:35:23;6.30;99.90
15481;DHT22;7842;50.904;6.670;2022-11-20T14:37:52;6.30;99.90
15481;DHT22;7842;50.904;6.670;2022-11-20T14:40:36;6.40;99.90
15481;DHT22;7842;50.904;6.670;2022-11-20T14:43:15;6.40;99.90
15481;DHT22;7842;50.904;6.670;2022-11-20T14:45:42;6.40;99.90
15481;DHT22;7842;50.904;6.670;2022-11-20T14:48:12;6.40;99.90
15481;DHT22;7842;50.904;6.670;2022-11-20T14:50:38;6.30;99.90
15481;DHT22;7842;50.904;6.670;2022-11-20T14:53:04;6.30;99.90
15481;DHT22;7842;50.904;6.670;2022-11-20T14:55:36;6.40;99.90
15481;DHT22;7842;50.904;6.670;2022-11-20T14:58:20;6.40;99.90
15481;DHT22;7842;50.904;6.670;2022-11-20T15:00:55;6.40;99.90
15481;DHT22;7842;50.904;6.670;2022-11-20T15:03:21;6.50;99.90
15481;DHT22;7842;50.904;6.670;2022-11-20T15:05:49;6.50;99.90
15481;DHT22;7842;50.904;6.670;2022-11-20T15:08:16;6.40;99.90
15481;DHT22;7842;50.904;6.670;2022-11-20T15:10:51;6.40;99.90
15481;DHT22;7842;50.904;6.670;2022-11-20T15:13:34;6.50;99.90
15481;DHT22;7842;50.904;6.670;2022-11-20T15:16:04;6.40;99.90
15481;DHT22;7842;50.904;6.670;2022-11-20T15:18:38;6.50;99.90
15481;DHT22;7842;50.904;6.670;2022-11-20T15:21:11;6.40;99.90
15481;DHT22;7842;50.904;6.670;2022-11-20T15:23:37;6.50;99.90
15481;DHT22;7842;50.904;6.670;2022-11-20T15:26:05;6.70;99.90
15481;DHT22;7842;50.904;6.670;2022-11-20T15:28:35;6.50;99.90
15481;DHT22;7842;50.904;6.670;2022-11-20T15:31:03;6.50;99.90
15481;DHT22;7842;50.904;6.670;2022-11-20T15:33:30;6.50;99.90
15481;DHT22;7842;50.904;6.670;2022-11-20T15:35:56;6.50;99.90
15481;DHT22;7842;50.904;6.670;2022-11-20T15:38:22;6.50;99.90
15481;DHT22;7842;50.904;6.670;2022-11-20T15:40:47;6.70;99.90
15481;DHT22;7842;50.904;6.670;2022-11-20T15:43:13;6.50;99.90
15481;DHT22;7842;50.904;6.670;2022-11-20T15:48:23;6.50;99.90
15481;DHT22;7842;50.904;6.670;2022-11-20T15:51:16;6.50;99.90
15481;DHT22;7842;50.904;6.670;2022-11-20T15:53:43;6.50;99.90
15481;DHT22;7842;50.904;6.670;2022-11-20T15:56:12;6.60;99.90
15481;DHT22;7842;50.904;6.670;2022-11-20T15:58:39;6.50;99.90
15481;DHT22;7842;50.904;6.670;2022-11-20T16:01:05;6.50;99.90
15481;DHT22;7842;50.904;6.670;2022-11-20T16:03:31;6.50;99.90
15481;DHT22;7842;50.904;6.670;2022-11-20T16:05:56;6.50;99.90
15481;DHT22;7842;50.904;6.670;2022-11-20T16:08:22;6.60;99.90
15481;DHT22;7842;50.904;6.670;2022-11-20T16:10:48;6.60;99.90
15481;DHT22;7842;50.904;6.670;2022-11-20T16:13:15;6.60;99.90
15481;DHT22;7842;50.904;6.670;2022-11-20T16:16:11;6.60;99.90
15481;DHT22;7842;50.904;6.670;2022-11-20T16:18:38;6.60;99.90
15481;DHT22;7842;50.904;6.670;2022-11-20T16:21:04;6.60;99.90
15481;DHT22;7842;50.904;6.670;2022-11-20T16:23:31;6.60;99.90
15481;DHT22;7842;50.904;6.670;2022-11-20T16:25:56;6.60;99.90
15481;DHT22;7842;50.904;6.670;2022-11-20T16:28:22;6.70;99.90
15481;DHT22;7842;50.904;6.670;2022-11-20T16:30:48;6.60;99.90
15481;DHT22;7842;50.904;6.670;2022-11-20T16:33:15;6.70;99.90
15481;DHT22;7842;50.904;6.670;2022-11-20T16:35:41;6.70;99.90
15481;DHT22;7842;50.904;6.670;2022-11-20T16:38:06;6.60;99.90
15481;DHT22;7842;50.904;6.670;2022-11-20T16:40:32;6.70;99.90
15481;DHT22;7842;50.904;6.670;2022-11-20T16:43:07;6.70;99.90
15481;DHT22;7842;50.904;6.670;2022-11-20T16:45:33;6.70;99.90
15481;DHT22;7842;50.904;6.670;2022-11-20T16:47:59;6.70;99.90
15481;DHT22;7842;50.904;6.670;2022-11-20T16:50:24;6.70;99.90
15481;DHT22;7842;50.904;6.670;2022-11-20T16:52:50;6.70;99.90
15481;DHT22;7842;50.904;6.670;2022-11-20T16:55:15;6.80;99.90
15481;DHT22;7842;50.904;6.670;2022-11-20T16:57:41;6.70;99.90
15481;DHT22;7842;50.904;6.670;2022-11-20T17:00:07;6.70;99.90
15481;DHT22;7842;50.904;6.670;2022-11-20T17:02:33;6.70;99.90
15481;DHT22;7842;50.904;6.670;2022-11-20T17:04:59;6.70;99.90
15481;DHT22;7842;50.904;6.670;2022-11-20T17:07:24;6.70;99.90
15481;DHT22;7842;50.904;6.670;2022-11-20T17:09:50;6.80;99.90
15481;DHT22;7842;50.904;6.670;2022-11-20T17:12:15;6.80;99.90
15481;DHT22;7842;50.904;6.670;2022-11-20T17:14:41;6.70;99.90
15481;DHT22;7842;50.904;6.670;2022-11-20T17:17:06;6.70;99.90
15481;DHT22;7842;50.904;6.670;2022-11-20T17:19:32;6.70;99.90
15481;DHT22;7842;50.904;6.670;2022-11-20T17:21:58;6.70;99.90
15481;DHT22;7842;50.904;6.670;2022-11-20T17:24:23;6.70;99.90
15481;DHT22;7842;50.904;6.670;2022-11-20T17:26:49;6.70;99.90
15481;DHT22;7842;50.904;6.670;2022-11-20T17:29:17;6.70;99.90
15481;DHT22;7842;50.904;6.670;2022-11-20T17:31:43;6.80;99.90
15481;DHT22;7842;50.904;6.670;2022-11-20T17:34:11;6.80;99.90
15481;DHT22;7842;50.904;6.670;2022-11-20T17:36:37;7.00;99.90
15481;DHT22;7842;50.904;6.670;2022-11-20T17:39:10;6.80;99.90
15481;DHT22;7842;50.904;6.670;2022-11-20T17:41:35;6.80;99.90
15481;DHT22;7842;50.904;6.670;2022-11-20T17:44:01;6.80;99.90
15481;DHT22;7842;50.904;6.670;2022-11-20T17:46:31;6.80;99.90
15481;DHT22;7842;50.904;6.670;2022-11-20T17:48:58;6.80;99.90